sensor_id;sensor_type;location;lat;lon;timestamp;P1;durP1;ratioP1;P2;durP2;ratioP2
16977;SDS011;8605;52.548;4.918;2023-09-30T00:03:27;9.53;;;2.63;;
16977;SDS011;8605;52.548;4.918;2023-09-30T00:08:31;5.28;;;2.83;;
16977;SDS011;8605;52.548;4.918;2023-09-30T00:13:35;5.83;;;3.33;;
16977;SDS011;8605;52.548;4.918;2023-09-30T00:18:38;7.55;;;3.22;;
16977;SDS011;8605;52.548;4.918;2023-09-30T00:23:41;5.50;;;2.70;;
16977;SDS011;8605;52.548;4.918;2023-09-30T00:28:49;7.33;;;3.33;;
16977;SDS011;8605;52.548;4.918;2023-09-30T00:33:52;9.95;;;3.97;;
16977;SDS011;8605;52.548;4.918;2023-09-30T00:38:56;12.80;;;3.55;;
16977;SDS011;8605;52.548;4.918;2023-09-30T00:44:23;10.23;;;4.80;;
16977;SDS011;8605;52.548;4.918;2023-09-30T00:49:26;11.48;;;2.90;;
16977;SDS011;8605;52.548;4.918;2023-09-30T00:54:30;6.70;;;3.37;;
16977;SDS011;8605;52.548;4.918;2023-09-30T00:59:35;12.25;;;3.42;;
16977;SDS011;8605;52.548;4.918;2023-09-30T01:04:38;6.27;;;3.70;;
16977;SDS011;8605;52.548;4.918;2023-09-30T01:09:42;7.03;;;3.70;;
16977;SDS011;8605;52.548;4.918;2023-09-30T01:14:47;9.60;;;3.85;;
16977;SDS011;8605;52.548;4.918;2023-09-30T01:19:50;7.25;;;3.60;;
16977;SDS011;8605;52.548;4.918;2023-09-30T01:24:55;11.57;;;4.67;;
16977;SDS011;8605;52.548;4.918;2023-09-30T01:29:57;9.45;;;4.18;;
16977;SDS011;8605;52.548;4.918;2023-09-30T01:35:00;8.40;;;3.95;;
16977;SDS011;8605;52.548;4.918;2023-09-30T01:40:06;7.88;;;3.70;;
16977;SDS011;8605;52.548;4.918;2023-09-30T01:45:13;10.57;;;3.40;;
16977;SDS011;8605;52.548;4.918;2023-09-30T01:50:16;9.82;;;3.53;;
16977;SDS011;8605;52.548;4.918;2023-09-30T01:55:20;8.57;;;3.50;;
16977;SDS011;8605;52.548;4.918;2023-09-30T02:00:23;5.90;;;2.85;;
16977;SDS011;8605;52.548;4.918;2023-09-30T02:05:27;10.68;;;3.83;;
16977;SDS011;8605;52.548;4.918;2023-09-30T02:10:32;7.63;;;3.45;;
16977;SDS011;8605;52.548;4.918;2023-09-30T02:15:39;8.23;;;4.25;;
16977;SDS011;8605;52.548;4.918;2023-09-30T02:20:43;7.68;;;3.88;;
16977;SDS011;8605;52.548;4.918;2023-09-30T02:25:47;12.85;;;3.53;;
16977;SDS011;8605;52.548;4.918;2023-09-30T02:30:50;6.70;;;3.72;;
16977;SDS011;8605;52.548;4.918;2023-09-30T02:35:54;11.07;;;4.30;;
16977;SDS011;8605;52.548;4.918;2023-09-30T02:40:58;9.30;;;3.55;;
16977;SDS011;8605;52.548;4.918;2023-09-30T02:46:01;7.03;;;3.85;;
16977;SDS011;8605;52.548;4.918;2023-09-30T02:51:08;9.05;;;3.75;;
16977;SDS011;8605;52.548;4.918;2023-09-30T02:56:13;10.13;;;3.97;;
16977;SDS011;8605;52.548;4.918;2023-09-30T03:01:16;7.10;;;3.03;;
16977;SDS011;8605;52.548;4.918;2023-09-30T03:06:19;10.60;;;4.13;;
16977;SDS011;8605;52.548;4.918;2023-09-30T03:11:24;6.07;;;3.58;;
16977;SDS011;8605;52.548;4.918;2023-09-30T03:16:27;7.10;;;4.07;;
16977;SDS011;8605;52.548;4.918;2023-09-30T03:21:32;9.32;;;3.60;;
16977;SDS011;8605;52.548;4.918;2023-09-30T03:26:36;8.98;;;4.25;;
16977;SDS011;8605;52.548;4.918;2023-09-30T03:31:42;10.70;;;4.30;;
16977;SDS011;8605;52.548;4.918;2023-09-30T03:36:45;10.27;;;4.82;;
16977;SDS011;8605;52.548;4.918;2023-09-30T03:41:49;13.50;;;4.15;;
16977;SDS011;8605;52.548;4.918;2023-09-30T03:46:53;9.43;;;4.18;;
16977;SDS011;8605;52.548;4.918;2023-09-30T03:51:58;7.50;;;3.43;;
16977;SDS011;8605;52.548;4.918;2023-09-30T03:57:03;8.25;;;4.65;;
16977;SDS011;8605;52.548;4.918;2023-09-30T04:02:06;9.77;;;3.90;;
16977;SDS011;8605;52.548;4.918;2023-09-30T04:07:09;11.57;;;4.32;;
16977;SDS011;8605;52.548;4.918;2023-09-30T04:12:13;10.07;;;4.40;;
16977;SDS011;8605;52.548;4.918;2023-09-30T04:17:18;8.67;;;4.37;;
16977;SDS011;8605;52.548;4.918;2023-09-30T04:22:20;7.10;;;4.40;;
16977;SDS011;8605;52.548;4.918;2023-09-30T04:27:25;7.47;;;4.53;;
16977;SDS011;8605;52.548;4.918;2023-09-30T04:32:28;9.93;;;4.57;;
16977;SDS011;8605;52.548;4.918;2023-09-30T04:37:31;7.40;;;3.75;;
16977;SDS011;8605;52.548;4.918;2023-09-30T04:42:36;9.37;;;4.30;;
16977;SDS011;8605;52.548;4.918;2023-09-30T04:47:39;12.13;;;5.10;;
16977;SDS011;8605;52.548;4.918;2023-09-30T04:52:42;9.48;;;4.38;;
16977;SDS011;8605;52.548;4.918;2023-09-30T04:57:48;10.20;;;4.10;;
16977;SDS011;8605;52.548;4.918;2023-09-30T05:02:51;9.60;;;4.20;;
16977;SDS011;8605;52.548;4.918;2023-09-30T05:07:55;7.38;;;4.15;;
16977;SDS011;8605;52.548;4.918;2023-09-30T05:13:00;9.98;;;4.55;;
16977;SDS011;8605;52.548;4.918;2023-09-30T05:18:04;8.90;;;4.22;;
16977;SDS011;8605;52.548;4.918;2023-09-30T05:23:09;11.70;;;4.40;;
16977;SDS011;8605;52.548;4.918;2023-09-30T05:28:15;7.68;;;3.58;;
16977;SDS011;8605;52.548;4.918;2023-09-30T05:33:18;6.82;;;4.30;;
16977;SDS011;8605;52.548;4.918;2023-09-30T05:38:21;8.03;;;4.13;;
16977;SDS011;8605;52.548;4.918;2023-09-30T05:43:26;5.80;;;4.00;;
16977;SDS011;8605;52.548;4.918;2023-09-30T05:48:29;6.67;;;3.50;;
16977;SDS011;8605;52.548;4.918;2023-09-30T05:53:33;11.20;;;4.70;;
16977;SDS011;8605;52.548;4.918;2023-09-30T05:58:39;7.40;;;4.43;;
16977;SDS011;8605;52.548;4.918;2023-09-30T06:03:42;11.20;;;4.60;;
16977;SDS011;8605;52.548;4.918;2023-09-30T06:08:48;9.60;;;4.05;;
16977;SDS011;8605;52.548;4.918;2023-09-30T06:13:53;7.97;;;4.10;;
16977;SDS011;8605;52.548;4.918;2023-09-30T06:18:56;9.65;;;4.95;;
16977;SDS011;8605;52.548;4.918;2023-09-30T06:24:00;11.03;;;4.77;;
16977;SDS011;8605;52.548;4.918;2023-09-30T06:29:04;10.43;;;4.70;;
16977;SDS011;8605;52.548;4.918;2023-09-30T06:34:08;10.35;;;4.80;;
16977;SDS011;8605;52.548;4.918;2023-09-30T06:39:12;9.80;;;4.97;;
16977;SDS011;8605;52.548;4.918;2023-09-30T06:44:17;9.93;;;5.20;;
16977;SDS011;8605;52.548;4.918;2023-09-30T06:49:21;8.13;;;4.85;;
16977;SDS011;8605;52.548;4.918;2023-09-30T06:54:24;10.40;;;5.15;;
16977;SDS011;8605;52.548;4.918;2023-09-30T06:59:28;9.00;;;5.20;;
16977;SDS011;8605;52.548;4.918;2023-09-30T07:04:31;9.32;;;4.68;;
16977;SDS011;8605;52.548;4.918;2023-09-30T07:09:34;12.02;;;4.70;;
16977;SDS011;8605;52.548;4.918;2023-09-30T07:14:39;9.63;;;5.43;;
16977;SDS011;8605;52.548;4.918;2023-09-30T07:19:42;10.70;;;5.30;;
16977;SDS011;8605;52.548;4.918;2023-09-30T07:24:45;9.23;;;4.65;;
16977;SDS011;8605;52.548;4.918;2023-09-30T07:29:50;13.95;;;5.22;;
16977;SDS011;8605;52.548;4.918;2023-09-30T07:34:54;18.77;;;5.53;;
16977;SDS011;8605;52.548;4.918;2023-09-30T07:39:57;9.18;;;5.10;;
16977;SDS011;8605;52.548;4.918;2023-09-30T07:45:02;12.98;;;5.35;;
16977;SDS011;8605;52.548;4.918;2023-09-30T07:50:06;10.97;;;5.63;;
16977;SDS011;8605;52.548;4.918;2023-09-30T07:55:12;16.90;;;5.70;;
16977;SDS011;8605;52.548;4.918;2023-09-30T08:00:16;11.30;;;5.77;;
16977;SDS011;8605;52.548;4.918;2023-09-30T08:05:19;15.98;;;6.10;;
16977;SDS011;8605;52.548;4.918;2023-09-30T08:10:22;13.48;;;5.10;;
16977;SDS011;8605;52.548;4.918;2023-09-30T08:15:27;10.02;;;5.18;;
16977;SDS011;8605;52.548;4.918;2023-09-30T08:20:30;12.43;;;5.40;;
16977;SDS011;8605;52.548;4.918;2023-09-30T08:25:33;7.13;;;4.57;;
16977;SDS011;8605;52.548;4.918;2023-09-30T08:30:37;15.52;;;5.57;;
16977;SDS011;8605;52.548;4.918;2023-09-30T08:35:41;8.57;;;5.22;;
16977;SDS011;8605;52.548;4.918;2023-09-30T08:40:44;8.57;;;4.53;;
16977;SDS011;8605;52.548;4.918;2023-09-30T08:45:49;9.75;;;4.95;;
16977;SDS011;8605;52.548;4.918;2023-09-30T08:50:56;7.50;;;3.60;;
16977;SDS011;8605;52.548;4.918;2023-09-30T08:55:59;14.25;;;4.15;;
16977;SDS011;8605;52.548;4.918;2023-09-30T09:01:07;10.55;;;3.00;;
16977;SDS011;8605;52.548;4.918;2023-09-30T09:06:11;7.78;;;3.10;;
16977;SDS011;8605;52.548;4.918;2023-09-30T09:11:14;6.97;;;2.90;;
16977;SDS011;8605;52.548;4.918;2023-09-30T09:16:20;4.55;;;2.20;;
16977;SDS011;8605;52.548;4.918;2023-09-30T09:21:23;8.65;;;3.60;;
16977;SDS011;8605;52.548;4.918;2023-09-30T09:26:29;11.00;;;3.40;;
16977;SDS011;8605;52.548;4.918;2023-09-30T09:31:35;9.55;;;3.30;;
16977;SDS011;8605;52.548;4.918;2023-09-30T09:36:39;8.65;;;2.65;;
16977;SDS011;8605;52.548;4.918;2023-09-30T09:41:49;4.88;;;1.88;;
16977;SDS011;8605;52.548;4.918;2023-09-30T09:46:53;6.70;;;2.07;;
16977;SDS011;8605;52.548;4.918;2023-09-30T09:51:56;7.67;;;2.57;;
16977;SDS011;8605;52.548;4.918;2023-09-30T09:57:00;7.60;;;2.20;;
16977;SDS011;8605;52.548;4.918;2023-09-30T10:02:08;6.20;;;2.17;;
16977;SDS011;8605;52.548;4.918;2023-09-30T10:07:14;4.47;;;1.77;;
16977;SDS011;8605;52.548;4.918;2023-09-30T10:12:35;6.85;;;2.03;;
16977;SDS011;8605;52.548;4.918;2023-09-30T10:17:57;7.80;;;2.70;;
16977;SDS011;8605;52.548;4.918;2023-09-30T10:44:56;9.03;;;2.20;;
16977;SDS011;8605;52.548;4.918;2023-09-30T10:50:00;10.35;;;2.22;;
16977;SDS011;8605;52.548;4.918;2023-09-30T10:55:04;5.17;;;1.93;;
16977;SDS011;8605;52.548;4.918;2023-09-30T11:00:09;3.97;;;1.85;;
16977;SDS011;8605;52.548;4.918;2023-09-30T11:05:19;10.02;;;2.22;;
16977;SDS011;8605;52.548;4.918;2023-09-30T11:10:47;4.70;;;1.50;;
16977;SDS011;8605;52.548;4.918;2023-09-30T11:15:59;6.30;;;2.35;;
16977;SDS011;8605;52.548;4.918;2023-09-30T11:21:04;6.22;;;1.48;;
16977;SDS011;8605;52.548;4.918;2023-09-30T11:26:08;4.95;;;1.60;;
16977;SDS011;8605;52.548;4.918;2023-09-30T11:31:12;7.07;;;1.88;;
16977;SDS011;8605;52.548;4.918;2023-09-30T11:36:18;5.63;;;1.85;;
16977;SDS011;8605;52.548;4.918;2023-09-30T11:41:22;5.78;;;1.73;;
16977;SDS011;8605;52.548;4.918;2023-09-30T11:46:27;3.85;;;1.60;;
16977;SDS011;8605;52.548;4.918;2023-09-30T11:51:41;5.78;;;1.70;;
16977;SDS011;8605;52.548;4.918;2023-09-30T11:56:47;5.18;;;2.25;;
16977;SDS011;8605;52.548;4.918;2023-09-30T12:01:51;6.55;;;1.70;;
16977;SDS011;8605;52.548;4.918;2023-09-30T12:07:15;9.60;;;2.10;;
16977;SDS011;8605;52.548;4.918;2023-09-30T12:12:18;4.23;;;1.77;;
16977;SDS011;8605;52.548;4.918;2023-09-30T12:17:21;2.92;;;1.50;;
16977;SDS011;8605;52.548;4.918;2023-09-30T12:22:25;5.25;;;1.40;;
16977;SDS011;8605;52.548;4.918;2023-09-30T12:27:29;4.68;;;1.25;;
16977;SDS011;8605;52.548;4.918;2023-09-30T12:32:33;5.30;;;2.10;;
16977;SDS011;8605;52.548;4.918;2023-09-30T12:37:38;9.93;;;2.07;;
16977;SDS011;8605;52.548;4.918;2023-09-30T12:42:41;4.80;;;1.33;;
16977;SDS011;8605;52.548;4.918;2023-09-30T12:47:44;2.53;;;1.63;;
16977;SDS011;8605;52.548;4.918;2023-09-30T12:52:50;3.40;;;1.45;;
16977;SDS011;8605;52.548;4.918;2023-09-30T12:57:53;8.60;;;1.42;;
16977;SDS011;8605;52.548;4.918;2023-09-30T13:02:56;4.60;;;1.50;;
16977;SDS011;8605;52.548;4.918;2023-09-30T13:08:00;4.80;;;2.03;;
16977;SDS011;8605;52.548;4.918;2023-09-30T13:13:04;6.13;;;1.77;;
16977;SDS011;8605;52.548;4.918;2023-09-30T13:18:08;10.10;;;2.10;;
16977;SDS011;8605;52.548;4.918;2023-09-30T13:23:13;4.40;;;1.75;;
16977;SDS011;8605;52.548;4.918;2023-09-30T13:28:17;8.03;;;2.10;;
16977;SDS011;8605;52.548;4.918;2023-09-30T13:33:20;10.80;;;2.93;;
16977;SDS011;8605;52.548;4.918;2023-09-30T13:38:24;7.82;;;2.75;;
16977;SDS011;8605;52.548;4.918;2023-09-30T13:43:27;7.57;;;2.45;;
16977;SDS011;8605;52.548;4.918;2023-09-30T13:48:30;5.90;;;2.28;;
16977;SDS011;8605;52.548;4.918;2023-09-30T13:53:35;6.90;;;2.60;;
16977;SDS011;8605;52.548;4.918;2023-09-30T13:58:38;6.10;;;2.57;;
16977;SDS011;8605;52.548;4.918;2023-09-30T14:03:40;7.15;;;2.22;;
16977;SDS011;8605;52.548;4.918;2023-09-30T14:08:46;7.32;;;2.67;;
16977;SDS011;8605;52.548;4.918;2023-09-30T14:13:49;9.68;;;2.50;;
16977;SDS011;8605;52.548;4.918;2023-09-30T14:18:52;3.67;;;1.95;;
16977;SDS011;8605;52.548;4.918;2023-09-30T14:23:56;8.03;;;2.00;;
16977;SDS011;8605;52.548;4.918;2023-09-30T14:28:59;6.37;;;2.03;;
16977;SDS011;8605;52.548;4.918;2023-09-30T14:34:02;9.27;;;2.10;;
16977;SDS011;8605;52.548;4.918;2023-09-30T14:39:08;5.57;;;2.15;;
16977;SDS011;8605;52.548;4.918;2023-09-30T14:44:15;7.78;;;2.60;;
16977;SDS011;8605;52.548;4.918;2023-09-30T14:49:18;6.82;;;2.83;;
16977;SDS011;8605;52.548;4.918;2023-09-30T14:54:22;7.47;;;2.77;;
16977;SDS011;8605;52.548;4.918;2023-09-30T14:59:25;13.83;;;2.60;;
16977;SDS011;8605;52.548;4.918;2023-09-30T15:04:29;7.63;;;2.70;;
16977;SDS011;8605;52.548;4.918;2023-09-30T15:09:36;8.18;;;2.40;;
16977;SDS011;8605;52.548;4.918;2023-09-30T15:14:43;7.65;;;1.92;;
16977;SDS011;8605;52.548;4.918;2023-09-30T15:19:47;9.20;;;3.15;;
16977;SDS011;8605;52.548;4.918;2023-09-30T15:24:51;8.40;;;2.28;;
16977;SDS011;8605;52.548;4.918;2023-09-30T15:29:54;4.90;;;1.85;;
16977;SDS011;8605;52.548;4.918;2023-09-30T15:34:57;9.95;;;1.90;;
16977;SDS011;8605;52.548;4.918;2023-09-30T15:40:02;8.65;;;1.90;;
16977;SDS011;8605;52.548;4.918;2023-09-30T15:45:05;3.83;;;2.47;;
16977;SDS011;8605;52.548;4.918;2023-09-30T15:50:09;6.38;;;2.33;;
16977;SDS011;8605;52.548;4.918;2023-09-30T15:55:14;6.50;;;2.28;;
16977;SDS011;8605;52.548;4.918;2023-09-30T16:00:17;5.20;;;1.83;;
16977;SDS011;8605;52.548;4.918;2023-09-30T16:05:20;5.47;;;2.50;;
16977;SDS011;8605;52.548;4.918;2023-09-30T16:10:25;5.75;;;2.35;;
16977;SDS011;8605;52.548;4.918;2023-09-30T16:15:28;7.83;;;1.97;;
16977;SDS011;8605;52.548;4.918;2023-09-30T16:20:32;11.30;;;2.43;;
16977;SDS011;8605;52.548;4.918;2023-09-30T16:25:37;7.60;;;1.48;;
16977;SDS011;8605;52.548;4.918;2023-09-30T16:30:40;5.33;;;1.83;;
16977;SDS011;8605;52.548;4.918;2023-09-30T16:35:46;5.90;;;1.98;;
16977;SDS011;8605;52.548;4.918;2023-09-30T16:40:53;7.93;;;2.25;;
16977;SDS011;8605;52.548;4.918;2023-09-30T16:45:58;4.53;;;1.75;;
16977;SDS011;8605;52.548;4.918;2023-09-30T16:51:03;6.40;;;2.07;;
16977;SDS011;8605;52.548;4.918;2023-09-30T16:56:10;5.55;;;1.63;;
16977;SDS011;8605;52.548;4.918;2023-09-30T17:01:13;10.85;;;1.90;;
16977;SDS011;8605;52.548;4.918;2023-09-30T17:06:16;4.33;;;1.97;;
16977;SDS011;8605;52.548;4.918;2023-09-30T17:11:21;9.27;;;1.40;;
16977;SDS011;8605;52.548;4.918;2023-09-30T17:16:24;6.57;;;2.10;;
16977;SDS011;8605;52.548;4.918;2023-09-30T17:31:37;7.75;;;1.52;;
16977;SDS011;8605;52.548;4.918;2023-09-30T17:41:40;5.80;;;2.50;;
16977;SDS011;8605;52.548;4.918;2023-09-30T17:51:44;6.70;;;2.10;;
16977;SDS011;8605;52.548;4.918;2023-09-30T18:01:50;9.70;;;4.37;;
16977;SDS011;8605;52.548;4.918;2023-09-30T18:11:54;16.33;;;11.03;;
16977;SDS011;8605;52.548;4.918;2023-09-30T18:21:57;7.85;;;3.13;;
16977;SDS011;8605;52.548;4.918;2023-09-30T18:32:02;8.80;;;3.43;;
16977;SDS011;8605;52.548;4.918;2023-09-30T18:42:05;21.90;;;9.05;;
16977;SDS011;8605;52.548;4.918;2023-09-30T18:52:09;9.40;;;2.97;;
16977;SDS011;8605;52.548;4.918;2023-09-30T19:02:12;7.82;;;2.63;;
16977;SDS011;8605;52.548;4.918;2023-09-30T19:12:17;7.80;;;2.80;;
16977;SDS011;8605;52.548;4.918;2023-09-30T19:22:20;7.30;;;2.80;;
16977;SDS011;8605;52.548;4.918;2023-09-30T19:32:26;7.90;;;2.53;;
16977;SDS011;8605;52.548;4.918;2023-09-30T19:42:28;7.97;;;2.80;;
16977;SDS011;8605;52.548;4.918;2023-09-30T19:52:33;6.30;;;2.43;;
16977;SDS011;8605;52.548;4.918;2023-09-30T20:02:36;9.33;;;3.37;;
16977;SDS011;8605;52.548;4.918;2023-09-30T20:12:40;10.13;;;3.20;;
16977;SDS011;8605;52.548;4.918;2023-09-30T20:22:43;8.47;;;3.77;;
16977;SDS011;8605;52.548;4.918;2023-09-30T20:32:47;11.67;;;3.97;;
16977;SDS011;8605;52.548;4.918;2023-09-30T20:42:50;9.32;;;3.92;;
16977;SDS011;8605;52.548;4.918;2023-09-30T20:52:55;7.55;;;3.85;;
16977;SDS011;8605;52.548;4.918;2023-09-30T21:03:00;9.77;;;3.33;;
16977;SDS011;8605;52.548;4.918;2023-09-30T21:13:05;10.73;;;4.13;;
16977;SDS011;8605;52.548;4.918;2023-09-30T21:23:08;15.57;;;4.15;;
16977;SDS011;8605;52.548;4.918;2023-09-30T21:33:12;8.43;;;3.92;;
16977;SDS011;8605;52.548;4.918;2023-09-30T21:43:15;18.03;;;3.23;;
16977;SDS011;8605;52.548;4.918;2023-09-30T21:53:20;8.40;;;3.70;;
16977;SDS011;8605;52.548;4.918;2023-09-30T22:03:26;11.60;;;4.40;;
16977;SDS011;8605;52.548;4.918;2023-09-30T22:13:31;9.20;;;3.83;;
16977;SDS011;8605;52.548;4.918;2023-09-30T22:23:34;12.07;;;4.25;;
16977;SDS011;8605;52.548;4.918;2023-09-30T22:33:39;13.48;;;4.97;;
16977;SDS011;8605;52.548;4.918;2023-09-30T22:43:42;10.60;;;4.43;;
16977;SDS011;8605;52.548;4.918;2023-09-30T22:53:46;14.53;;;4.67;;
16977;SDS011;8605;52.548;4.918;2023-09-30T23:03:50;12.75;;;4.22;;
16977;SDS011;8605;52.548;4.918;2023-09-30T23:13:55;8.67;;;4.13;;
16977;SDS011;8605;52.548;4.918;2023-09-30T23:23:59;11.23;;;4.22;;
16977;SDS011;8605;52.548;4.918;2023-09-30T23:34:04;9.07;;;3.97;;
16977;SDS011;8605;52.548;4.918;2023-09-30T23:44:09;11.95;;;5.10;;
16977;SDS011;8605;52.548;4.918;2023-09-30T23:54:15;9.73;;;5.03;;
